createdAt,value
2023-03-26T00:01:46.536Z,35.75
2023-03-26T00:04:14.596Z,36.20
2023-03-26T00:06:42.586Z,37.10
2023-03-26T00:09:13.594Z,34.10
2023-03-26T00:11:42.031Z,35.05
2023-03-26T00:14:14.129Z,34.63
2023-03-26T00:16:44.671Z,36.83
2023-03-26T00:19:12.916Z,36.05
2023-03-26T00:21:41.677Z,35.20
2023-03-26T00:24:15.369Z,35.05
2023-03-26T00:26:44.779Z,35.22
2023-03-26T00:29:14.083Z,36.63
2023-03-26T00:31:46.718Z,35.28
2023-03-26T00:34:18.759Z,36.03
2023-03-26T00:36:47.266Z,36.53
2023-03-26T00:39:15.499Z,36.65
2023-03-26T00:41:43.889Z,35.10
2023-03-26T00:44:11.955Z,37.33
2023-03-26T00:46:40.014Z,35.28
2023-03-26T00:49:11.188Z,36.13
2023-03-26T00:51:39.516Z,36.35
2023-03-26T00:54:08.355Z,39.50
2023-03-26T00:56:36.372Z,36.78
2023-03-26T00:59:04.548Z,39.00
2023-03-26T01:01:32.587Z,42.50
2023-03-26T01:04:27.564Z,39.45
2023-03-26T01:07:05.944Z,50.10
2023-03-26T01:09:43.012Z,57.10
2023-03-26T01:12:18.619Z,49.97
2023-03-26T01:14:53.712Z,46.75
2023-03-26T01:17:22.779Z,47.05
2023-03-26T01:19:53.524Z,47.83
2023-03-26T01:22:24.687Z,45.33
2023-03-26T01:24:54.101Z,51.17
2023-03-26T01:27:41.178Z,47.72
2023-03-26T01:30:21.070Z,40.08
2023-03-26T01:33:03.868Z,41.67
2023-03-26T01:35:34.754Z,45.58
2023-03-26T01:38:02.602Z,45.83
2023-03-26T01:41:01.262Z,42.88
2023-03-26T01:43:34.269Z,40.67
2023-03-26T01:46:05.660Z,40.25
2023-03-26T01:48:39.915Z,42.70
2023-03-26T01:51:08.567Z,44.22
2023-03-26T01:53:41.317Z,43.60
2023-03-26T01:56:11.043Z,46.10
2023-03-26T01:58:41.640Z,45.78
2023-03-26T02:01:30.433Z,40.65
2023-03-26T02:04:03.082Z,41.33
2023-03-26T02:07:11.789Z,38.25
2023-03-26T02:09:45.908Z,45.00
2023-03-26T02:12:14.989Z,41.38
2023-03-26T02:14:43.745Z,42.30
2023-03-26T02:17:32.820Z,42.05
2023-03-26T02:20:07.153Z,43.70
2023-03-26T02:22:41.166Z,41.92
2023-03-26T02:25:12.942Z,51.08
2023-03-26T02:27:40.872Z,42.90
2023-03-26T02:30:18.371Z,44.20
2023-03-26T02:32:52.468Z,43.25
2023-03-26T02:35:22.682Z,41.95
2023-03-26T02:37:55.640Z,41.63
2023-03-26T02:40:23.749Z,44.70
2023-03-26T02:42:52.668Z,41.53
2023-03-26T02:45:20.693Z,44.00
2023-03-26T02:47:51.425Z,43.83
2023-03-26T02:50:43.164Z,41.95
2023-03-26T02:53:31.003Z,43.65
2023-03-26T02:56:17.263Z,44.08
2023-03-26T02:58:58.837Z,48.80
2023-03-26T03:01:26.799Z,45.33
2023-03-26T03:03:56.069Z,47.67
2023-03-26T03:06:38.524Z,43.10
2023-03-26T03:09:09.486Z,44.13
2023-03-26T03:11:38.903Z,44.03
2023-03-26T03:14:07.116Z,42.65
2023-03-26T03:16:36.056Z,41.78
2023-03-26T03:19:07.379Z,39.75
2023-03-26T03:21:40.373Z,42.88
2023-03-26T03:24:10.193Z,40.90
2023-03-26T03:26:45.985Z,40.65
2023-03-26T03:29:26.712Z,43.33
2023-03-26T03:31:55.905Z,42.40
2023-03-26T03:34:42.597Z,40.55
2023-03-26T03:37:10.950Z,42.15
2023-03-26T03:42:23.608Z,43.72
2023-03-26T03:44:55.981Z,41.65
2023-03-26T03:47:42.516Z,43.55
2023-03-26T03:50:11.412Z,40.13
2023-03-26T03:52:46.511Z,39.90
2023-03-26T03:55:17.469Z,44.70
2023-03-26T03:57:54.470Z,40.45
2023-03-26T04:00:24.828Z,42.97
2023-03-26T04:03:15.834Z,51.20
2023-03-26T04:05:49.576Z,45.38
2023-03-26T04:08:18.466Z,48.50
2023-03-26T04:10:49.575Z,49.60
2023-03-26T04:13:17.791Z,46.95
2023-03-26T04:18:50.009Z,53.92
2023-03-26T04:21:19.423Z,62.15
2023-03-26T04:23:47.696Z,54.95
2023-03-26T04:26:44.779Z,53.88
2023-03-26T04:29:17.204Z,55.83
2023-03-26T04:31:47.232Z,46.67
2023-03-26T04:34:24.491Z,44.80
2023-03-26T04:37:05.846Z,49.13
2023-03-26T04:39:40.378Z,42.42
2023-03-26T04:42:26.731Z,43.35
2023-03-26T04:45:06.777Z,43.55
2023-03-26T04:47:37.227Z,54.45
2023-03-26T04:50:08.317Z,55.53
2023-03-26T04:52:38.427Z,55.53
2023-03-26T04:56:05.717Z,55.20
2023-03-26T04:59:04.569Z,56.97
2023-03-26T05:01:38.005Z,49.42
2023-03-26T05:04:06.862Z,77.65
2023-03-26T05:06:34.760Z,65.97
2023-03-26T05:09:10.785Z,42.45
2023-03-26T05:11:58.741Z,45.95
2023-03-26T05:14:26.720Z,30.25
2023-03-26T05:16:55.045Z,47.63
2023-03-26T05:19:22.878Z,32.20
2023-03-26T05:21:50.823Z,31.90
2023-03-26T05:24:19.829Z,25.65
2023-03-26T05:26:47.952Z,30.67
2023-03-26T05:29:17.473Z,26.75
2023-03-26T05:31:49.320Z,29.05
2023-03-26T05:34:17.217Z,25.77
2023-03-26T05:36:44.958Z,22.75
2023-03-26T05:42:41.928Z,19.25
2023-03-26T05:45:31.106Z,20.20
2023-03-26T05:48:02.295Z,16.77
2023-03-26T05:50:30.456Z,18.80
2023-03-26T05:53:01.002Z,17.77
2023-03-26T05:55:42.528Z,15.52
2023-03-26T05:58:32.633Z,14.23
2023-03-26T06:01:19.789Z,16.90
2023-03-26T06:04:16.099Z,15.35
2023-03-26T06:06:58.773Z,15.65
2023-03-26T06:09:26.830Z,17.80
2023-03-26T06:11:54.695Z,15.07
2023-03-26T06:14:22.864Z,15.13
2023-03-26T06:17:10.287Z,13.57
2023-03-26T06:20:14.737Z,16.88
2023-03-26T06:22:46.431Z,15.55
2023-03-26T06:25:47.056Z,18.92
2023-03-26T06:30:01.195Z,20.55
2023-03-26T06:33:24.658Z,24.27
2023-03-26T07:00:43.017Z,11.10
2023-03-26T07:04:00.008Z,14.95
2023-03-26T07:09:38.477Z,13.68
2023-03-26T07:12:34.884Z,12.60
2023-03-26T07:15:21.319Z,9.05
2023-03-26T07:18:13.981Z,9.82
2023-03-26T07:20:48.278Z,12.93
2023-03-26T07:23:20.942Z,8.55
2023-03-26T07:25:59.232Z,9.15
2023-03-26T07:29:04.591Z,7.22
2023-03-26T07:32:22.905Z,7.47
2023-03-26T07:35:25.278Z,9.52
2023-03-26T07:38:38.896Z,9.50
2023-03-26T07:41:52.866Z,8.95
2023-03-26T07:44:51.359Z,10.27
2023-03-26T07:47:58.042Z,8.73
2023-03-26T07:50:45.183Z,11.18
2023-03-26T07:53:26.726Z,6.43
2023-03-26T07:56:12.320Z,8.25
2023-03-26T07:59:21.380Z,8.18
2023-03-26T08:02:43.027Z,7.75
2023-03-26T08:05:57.326Z,9.65
2023-03-26T08:09:28.595Z,9.05
2023-03-26T08:12:51.362Z,5.85
2023-03-26T08:15:44.222Z,6.85
2023-03-26T08:18:35.546Z,7.60
2023-03-26T08:21:14.350Z,6.78
2023-03-26T08:23:55.234Z,8.30
2023-03-26T08:26:40.085Z,7.50
2023-03-26T08:29:16.647Z,9.80
2023-03-26T08:31:45.309Z,9.65
2023-03-26T08:34:14.171Z,8.50
2023-03-26T08:36:45.176Z,6.40
2023-03-26T08:39:13.282Z,9.18
2023-03-26T08:42:19.599Z,10.10
2023-03-26T08:44:56.021Z,9.95
2023-03-26T08:47:29.693Z,9.25
2023-03-26T08:50:33.234Z,10.20
2023-03-26T08:53:28.889Z,10.00
2023-03-26T08:56:25.219Z,10.80
2023-03-26T08:59:14.578Z,10.40
2023-03-26T09:01:48.043Z,14.23
2023-03-26T09:04:58.512Z,11.93
2023-03-26T09:07:43.370Z,9.25
2023-03-26T09:10:23.571Z,11.38
2023-03-26T09:13:13.608Z,13.13
2023-03-26T09:16:19.319Z,13.65
2023-03-26T09:19:04.475Z,13.82
2023-03-26T09:22:13.242Z,12.15
2023-03-26T09:24:56.482Z,13.27
2023-03-26T09:27:51.297Z,14.80
2023-03-26T09:30:31.723Z,14.50
2023-03-26T09:33:29.403Z,14.10
2023-03-26T09:36:09.207Z,15.45
2023-03-26T09:38:55.788Z,17.92
2023-03-26T09:42:23.886Z,17.88
2023-03-26T09:45:22.802Z,18.67
2023-03-26T09:48:07.031Z,19.23
2023-03-26T09:51:17.060Z,19.83
2023-03-26T09:53:58.397Z,20.50
2023-03-26T09:56:58.167Z,21.80
2023-03-26T09:59:41.364Z,27.63
2023-03-26T10:02:45.808Z,30.48
2023-03-26T10:05:24.982Z,27.48
2023-03-26T10:08:25.191Z,31.90
2023-03-26T10:11:23.780Z,36.15
2023-03-26T10:14:09.332Z,29.90
2023-03-26T10:17:00.167Z,34.95
2023-03-26T10:20:13.331Z,35.47
2023-03-26T10:22:44.198Z,38.05
2023-03-26T10:25:19.310Z,38.15
2023-03-26T10:27:59.658Z,35.92
2023-03-26T10:31:08.674Z,34.75
2023-03-26T10:33:58.676Z,34.55
2023-03-26T10:37:18.965Z,33.17
2023-03-26T10:40:27.663Z,34.78
2023-03-26T10:43:30.031Z,33.35
2023-03-26T10:46:04.360Z,32.10
2023-03-26T10:49:09.360Z,37.53
2023-03-26T10:52:04.246Z,36.10
2023-03-26T10:54:55.917Z,35.47
2023-03-26T10:58:00.295Z,40.30
2023-03-26T11:00:56.788Z,33.92
2023-03-26T11:03:41.883Z,35.95
2023-03-26T11:06:51.320Z,37.85
2023-03-26T11:09:37.143Z,41.88
2023-03-26T11:12:26.569Z,40.20
2023-03-26T11:17:52.429Z,41.80
2023-03-26T11:20:23.072Z,43.08
2023-03-26T11:23:04.154Z,39.53
2023-03-26T11:25:40.928Z,43.13
2023-03-26T11:28:24.681Z,39.67
2023-03-26T11:31:04.901Z,45.05
2023-03-26T11:33:37.105Z,44.65
2023-03-26T11:36:10.955Z,44.20
2023-03-26T11:38:42.172Z,44.17
2023-03-26T11:41:23.336Z,44.40
2023-03-26T11:44:22.028Z,37.22
2023-03-26T11:46:56.307Z,41.83
2023-03-26T11:49:26.567Z,43.50
2023-03-26T11:51:54.456Z,38.42
2023-03-26T11:54:22.649Z,42.72
2023-03-26T11:57:05.935Z,43.13
2023-03-26T11:59:55.508Z,44.30
2023-03-26T12:02:34.383Z,43.30
2023-03-26T12:05:14.379Z,44.75
2023-03-26T12:07:59.312Z,43.83
2023-03-26T12:10:34.922Z,39.80
2023-03-26T12:13:29.815Z,40.92
2023-03-26T12:15:59.559Z,41.33
2023-03-26T12:18:28.678Z,42.75
2023-03-26T12:21:19.321Z,43.63
2023-03-26T12:23:57.801Z,40.35
2023-03-26T12:26:34.654Z,42.28
2023-03-26T12:29:14.546Z,41.83
2023-03-26T12:31:51.531Z,37.28
2023-03-26T12:34:21.185Z,41.13
2023-03-26T12:36:52.384Z,39.17
2023-03-26T12:40:10.039Z,37.95
2023-03-26T12:44:50.230Z,37.17
2023-03-26T12:45:40.778Z,40.70
2023-03-26T12:48:13.504Z,45.80
2023-03-26T12:51:18.910Z,50.88
2023-03-26T12:54:03.782Z,43.08
2023-03-26T12:56:42.035Z,44.80
2023-03-26T12:59:42.404Z,36.88
2023-03-26T13:02:32.793Z,38.65
2023-03-26T13:05:17.997Z,38.58
2023-03-26T13:08:08.000Z,33.80
2023-03-26T13:10:54.786Z,38.75
2023-03-26T13:13:22.729Z,35.67
2023-03-26T13:15:58.676Z,34.13
2023-03-26T13:18:45.725Z,34.67
2023-03-26T13:21:28.748Z,35.47
2023-03-26T13:24:25.900Z,36.78
2023-03-26T13:27:16.922Z,33.28
2023-03-26T13:30:31.401Z,35.70
2023-03-26T13:33:14.540Z,37.75
2023-03-26T13:36:23.248Z,36.35
2023-03-26T13:39:03.699Z,36.72
2023-03-26T13:41:51.961Z,36.67
2023-03-26T13:44:32.987Z,36.50
2023-03-26T13:47:11.748Z,33.97
2023-03-26T13:50:00.084Z,36.08
2023-03-26T13:52:56.415Z,31.38
2023-03-26T13:56:02.739Z,35.28
2023-03-26T13:58:44.081Z,31.05
2023-03-26T14:01:18.311Z,35.42
2023-03-26T14:03:56.365Z,35.15
2023-03-26T14:06:42.375Z,35.58
2023-03-26T14:09:23.167Z,33.22
2023-03-26T14:11:56.849Z,35.35
2023-03-26T14:14:54.965Z,34.88
2023-03-26T14:17:31.562Z,35.25
2023-03-26T14:20:20.712Z,37.10
2023-03-26T14:23:13.888Z,34.47
2023-03-26T14:25:56.338Z,32.70
2023-03-26T14:28:33.208Z,33.47
2023-03-26T14:31:03.818Z,34.03
2023-03-26T14:33:52.988Z,32.33
2023-03-26T14:36:20.884Z,32.58
2023-03-26T14:38:57.674Z,34.45
2023-03-26T14:41:30.309Z,34.67
2023-03-26T14:44:04.012Z,32.05
2023-03-26T14:46:49.403Z,31.40
2023-03-26T14:49:30.189Z,31.63
2023-03-26T14:52:16.429Z,31.23
2023-03-26T14:54:45.752Z,33.42
2023-03-26T14:57:33.164Z,30.35
2023-03-26T15:00:15.833Z,32.40
2023-03-26T15:03:07.645Z,30.60
2023-03-26T15:06:04.273Z,29.42
2023-03-26T15:09:09.566Z,29.98
2023-03-26T15:12:12.110Z,31.17
2023-03-26T15:17:34.876Z,31.42
2023-03-26T15:20:21.384Z,33.65
2023-03-26T15:23:04.196Z,33.17
2023-03-26T15:26:16.725Z,32.25
2023-03-26T15:29:11.816Z,35.38
2023-03-26T15:31:55.531Z,34.50
2023-03-26T15:34:42.486Z,33.55
2023-03-26T15:37:52.780Z,36.22
2023-03-26T15:40:36.528Z,32.80
2023-03-26T15:43:15.278Z,34.08
2023-03-26T15:45:54.155Z,35.05
2023-03-26T15:48:46.382Z,34.50
2023-03-26T15:51:32.365Z,35.38
2023-03-26T15:54:29.483Z,32.78
2023-03-26T15:57:16.893Z,34.67
2023-03-26T15:59:52.306Z,35.35
2023-03-26T16:02:41.655Z,35.42
2023-03-26T16:08:39.797Z,34.97
2023-03-26T16:11:12.789Z,34.40
2023-03-26T16:16:16.208Z,36.83
2023-03-26T16:18:47.024Z,34.13
2023-03-26T16:21:30.587Z,33.63
2023-03-26T16:24:03.396Z,33.97
2023-03-26T16:26:53.081Z,35.05
2023-03-26T16:29:24.017Z,33.00
2023-03-26T16:32:10.348Z,37.25
2023-03-26T16:34:53.020Z,36.03
2023-03-26T16:37:39.827Z,35.30
2023-03-26T16:40:16.897Z,37.05
2023-03-26T16:43:01.661Z,33.53
2023-03-26T16:45:40.769Z,34.70
2023-03-26T16:48:23.996Z,35.33
2023-03-26T16:51:11.469Z,32.80
2023-03-26T16:54:09.646Z,35.78
2023-03-26T16:56:48.425Z,36.78
2023-03-26T16:59:36.487Z,35.33
2023-03-26T17:02:13.895Z,33.30
2023-03-26T17:04:58.497Z,35.10
2023-03-26T17:08:36.367Z,32.38
2023-03-26T17:11:40.366Z,33.25
2023-03-26T17:14:42.306Z,33.53
2023-03-26T17:17:28.842Z,33.33
2023-03-26T17:20:33.133Z,31.58
2023-03-26T17:23:22.656Z,33.53
2023-03-26T17:25:57.924Z,32.72
2023-03-26T17:28:52.186Z,33.17
2023-03-26T17:31:41.684Z,35.67
2023-03-26T17:34:34.413Z,31.30
2023-03-26T17:37:11.834Z,33.73
2023-03-26T17:39:39.920Z,34.30
2023-03-26T17:42:27.964Z,32.35
2023-03-26T17:45:02.437Z,31.38
2023-03-26T17:47:54.099Z,33.65
2023-03-26T17:50:26.701Z,31.45
2023-03-26T17:52:58.993Z,31.90
2023-03-26T17:55:31.414Z,33.40
2023-03-26T17:58:00.819Z,32.35
2023-03-26T18:00:42.546Z,30.35
2023-03-26T18:03:37.156Z,31.85
2023-03-26T18:06:20.001Z,29.80
2023-03-26T18:09:06.568Z,30.73
2023-03-26T18:12:01.213Z,28.63
2023-03-26T18:14:52.031Z,30.35
2023-03-26T18:17:24.238Z,31.88
2023-03-26T18:19:54.537Z,31.47
2023-03-26T18:22:30.727Z,30.38
2023-03-26T18:25:00.750Z,33.75
2023-03-26T18:27:36.785Z,30.17
2023-03-26T18:30:19.732Z,32.03
2023-03-26T18:33:01.352Z,31.08
2023-03-26T18:35:55.655Z,30.52
2023-03-26T18:38:35.888Z,30.50
2023-03-26T18:41:08.200Z,30.92
2023-03-26T18:43:44.363Z,29.00
2023-03-26T18:46:14.083Z,31.55
2023-03-26T18:48:51.255Z,29.50
2023-03-26T18:51:23.347Z,29.70
2023-03-26T18:53:58.965Z,29.87
2023-03-26T18:56:49.288Z,31.58
2023-03-26T18:59:44.394Z,30.33
2023-03-26T19:02:21.230Z,28.02
2023-03-26T19:04:54.719Z,28.55
2023-03-26T19:07:25.751Z,29.27
2023-03-26T19:09:56.815Z,25.38
2023-03-26T19:12:35.347Z,25.58
2023-03-26T19:15:16.892Z,23.45
2023-03-26T19:17:46.686Z,24.50
2023-03-26T19:20:29.104Z,22.15
2023-03-26T19:22:57.427Z,22.97
2023-03-26T19:25:40.358Z,22.17
2023-03-26T19:28:25.187Z,23.58
2023-03-26T19:30:58.912Z,20.38
2023-03-26T19:33:34.174Z,20.60
2023-03-26T19:36:15.883Z,20.55
2023-03-26T19:38:55.224Z,19.30
2023-03-26T19:41:27.108Z,19.25
2023-03-26T19:44:14.113Z,19.67
2023-03-26T19:46:53.247Z,17.23
2023-03-26T19:49:36.082Z,14.15
2023-03-26T19:52:19.212Z,15.82
2023-03-26T19:55:00.205Z,16.65
2023-03-26T19:57:30.097Z,15.77
2023-03-26T19:59:58.567Z,14.88
2023-03-26T20:02:29.088Z,13.73
2023-03-26T20:05:04.856Z,13.95
2023-03-26T20:10:27.014Z,14.23
2023-03-26T20:12:54.910Z,13.40
2023-03-26T20:15:27.188Z,13.18
2023-03-26T20:17:59.093Z,13.00
2023-03-26T20:20:30.665Z,15.20
2023-03-26T20:22:58.439Z,14.43
2023-03-26T20:25:31.134Z,13.90
2023-03-26T20:30:37.313Z,13.07
2023-03-26T20:33:11.934Z,14.57
2023-03-26T20:35:41.711Z,15.88
2023-03-26T20:38:10.368Z,16.20
2023-03-26T20:40:38.703Z,16.85
2023-03-26T20:43:14.415Z,18.20
2023-03-26T20:45:42.692Z,18.60
2023-03-26T20:48:10.623Z,19.02
2023-03-26T20:50:50.259Z,19.17
2023-03-26T20:53:20.456Z,18.55
2023-03-26T20:55:53.608Z,18.77
2023-03-26T21:01:01.155Z,17.60
2023-03-26T21:03:29.132Z,18.35
2023-03-26T21:06:03.623Z,17.95
2023-03-26T21:08:34.556Z,20.05
2023-03-26T21:11:05.542Z,19.80
2023-03-26T21:13:43.878Z,21.15
2023-03-26T21:16:13.278Z,19.60
2023-03-26T21:18:42.246Z,21.85
2023-03-26T21:21:28.188Z,21.30
2023-03-26T21:24:03.301Z,21.10
2023-03-26T21:26:41.590Z,19.60
2023-03-26T21:29:11.964Z,19.95
2023-03-26T21:31:39.984Z,20.00
2023-03-26T21:34:09.754Z,21.17
2023-03-26T21:36:40.925Z,21.52
2023-03-26T21:39:11.135Z,21.40
2023-03-26T21:41:45.878Z,19.65
2023-03-26T21:44:14.674Z,23.13
2023-03-26T21:46:46.035Z,23.15
2023-03-26T21:49:16.348Z,23.40
2023-03-26T21:51:46.199Z,22.27
2023-03-26T21:54:28.112Z,22.70
2023-03-26T21:57:25.828Z,20.25
2023-03-26T22:00:16.396Z,22.90
2023-03-26T22:02:55.148Z,22.40
2023-03-26T22:05:49.646Z,20.45
2023-03-26T22:08:27.759Z,22.08
2023-03-26T22:10:55.881Z,21.30
2023-03-26T22:13:23.892Z,22.17
2023-03-26T22:15:51.878Z,22.77
2023-03-26T22:18:24.620Z,21.02
2023-03-26T22:20:53.291Z,22.77
2023-03-26T22:23:21.182Z,22.35
2023-03-26T22:25:48.958Z,21.60
2023-03-26T22:28:16.892Z,24.08
2023-03-26T22:30:44.586Z,23.38
2023-03-26T22:33:12.612Z,22.90
2023-03-26T22:35:42.960Z,22.77
2023-03-26T22:38:11.777Z,20.08
2023-03-26T22:40:39.577Z,18.17
2023-03-26T22:43:07.438Z,13.18
2023-03-26T22:45:35.140Z,13.27
2023-03-26T22:48:04.671Z,14.88
2023-03-26T22:50:33.183Z,13.85
2023-03-26T22:53:01.218Z,13.95
2023-03-26T22:55:29.994Z,15.40
2023-03-26T22:57:57.923Z,15.55
2023-03-26T23:00:26.633Z,12.57
2023-03-26T23:02:56.092Z,14.32
2023-03-26T23:05:23.941Z,13.13
2023-03-26T23:07:52.323Z,13.68
2023-03-26T23:10:21.734Z,13.57
2023-03-26T23:12:49.752Z,12.50
2023-03-26T23:15:17.402Z,11.93
2023-03-26T23:17:45.458Z,12.80
2023-03-26T23:20:22.730Z,13.07
2023-03-26T23:22:50.828Z,13.98
2023-03-26T23:25:18.584Z,13.63
2023-03-26T23:27:46.256Z,14.10
2023-03-26T23:30:15.163Z,14.55
2023-03-26T23:32:42.985Z,14.98
2023-03-26T23:35:11.309Z,15.43
2023-03-26T23:37:42.506Z,14.52
2023-03-26T23:40:11.287Z,13.57
2023-03-26T23:42:58.690Z,14.23
2023-03-26T23:45:26.426Z,15.00
2023-03-26T23:47:54.209Z,15.10
2023-03-26T23:50:23.714Z,13.90
2023-03-26T23:52:51.935Z,13.35
2023-03-26T23:55:19.601Z,13.25
2023-03-26T23:57:47.600Z,13.85
